Weed Heights, Nevada
Current Conditions -  °F | °C
As of 6:35 PM on Wednesday 22 Oct 2014 (Local Time) from KMEV Reporting Station
Clear Clear  
Wind Chill: 64°   Ceiling: Unl
Heat Index: 64°   Visibility: 10mi
Dew Point: 28°   Wind: 10mph
Humidity: 26%   Direction: 280°W
Pressure: 30.07"   Gusts: NA
Location:  38.8785°N, 119.096°W
Report Text: KMEV 230135Z AUTO 28009KT 10SM CLR 18/M02 A3007 RMK AO2
Loading
Personal Weather Stations






























Interactive Weather Map
Tropical Storm Tracking
New forecast layout! Learn more

10-Day Weather Forecast

Advertisements
Track Severe Weather on mobile